Marshall Ford, Texas
Current Conditions -  °F | °C
As of 2:51 PM on Friday 19 Dec 2014 (Local Time) from KATT Reporting Station
Overcast Overcast  
Wind Chill: 56°   Ceiling: 1700
Heat Index: 56°   Visibility: 10mi
Dew Point: 48°   Wind: 8mph
Humidity: 75%   Direction: 10°N
Pressure: 30.1"   Gusts: NA
Location:  30.3745°N, 97.8933°W
Report Text: KATT 192051Z AUTO 01007KT 10SM OVC017 13/09 A3010 RMK AO2 SLP193 T01330089 56012
Loading
Personal Weather Stations






























Interactive Weather Map New forecast layout! Learn more

10-Day Weather Forecast

Advertisements
Track Severe Weather on mobile